Time;durP1;ratioP1;P1;durP2;ratioP2;P2;SDS_P1;SDS_P2;PMS_P1;PMS_P2;Temp;Humidity;BMP_temperature;BMP_pressure;BME280_temperature;BME280_humidity;BME280_pressure;Samples;Min_cycle;Max_cycle;Signal;HPM_P1;HPM_P2
2024/02/08 00:00:41;;;;;;;;;5.83;5.00;;;;;13.58;83.86;100266.63;2046909;28;2737777;-83
2024/02/08 00:01:51;;;;;;;;;4.00;4.00;;;;;13.59;83.81;100265.66;2002400;27;2741950;-83
2024/02/08 00:03:07;;;;;;;;;6.00;5.33;;;;;13.58;83.80;100264.81;2045048;27;2746122;-83
2024/02/08 00:04:18;;;;;;;;;5.00;5.00;;;;;13.57;83.72;100271.03;2026558;28;2752531;-83
2024/02/08 00:05:29;;;;;;;;;7.00;7.00;;;;;13.59;83.93;100265.66;2034034;28;2732579;-83
2024/02/08 00:06:39;;;;;;;;;4.00;4.00;;;;;13.59;83.89;100265.66;2033229;28;2749230;-83
2024/02/08 00:07:50;;;;;;;;;8.67;6.00;;;;;13.58;83.76;100266.63;2039694;28;2757591;-84
2024/02/08 00:09:02;;;;;;;;;6.00;4.67;;;;;13.57;84.00;100263.13;2042455;27;2740882;-84
2024/02/08 00:10:12;;;;;;;;;4.00;4.00;;;;;13.59;83.83;100270.94;2026273;27;2752435;-84
2024/02/08 00:11:24;;;;;;;;;5.00;4.75;;;;;13.57;83.72;100262.25;2058593;27;2744038;-83
2024/02/08 00:12:37;;;;;;;;;7.33;7.33;;;;;13.60;83.52;100272.66;2031346;27;3449214;-83
2024/02/08 00:13:50;;;;;;;;;5.00;5.00;;;;;13.59;83.80;100270.94;2047232;28;2743005;-83
2024/02/08 00:15:01;;;;;;;;;4.00;4.00;;;;;13.58;83.84;100271.91;2000497;28;2750289;-83
2024/02/08 00:16:12;;;;;;;;;5.00;4.33;;;;;13.59;84.17;100270.94;2058122;27;2746638;-83
2024/02/08 00:17:27;;;;;;;;;6.33;3.67;;;;;13.59;83.66;100270.94;2030249;28;2744034;-84
2024/02/08 00:18:40;;;;;;;;;3.33;3.33;;;;;13.57;83.62;100265.75;2017284;28;2750293;-84
2024/02/08 00:19:51;;;;;;;;;3.00;3.00;;;;;13.58;83.90;100269.25;1996223;27;2754459;-83
2024/02/08 00:21:02;;;;;;;;;4.00;4.00;;;;;13.57;83.69;100264.91;2044062;27;2754427;-84
2024/02/08 00:22:20;;;;;;;;;2.00;2.00;;;;;13.58;83.82;100271.91;2043399;28;2735709;-84
2024/02/08 00:23:30;;;;;;;;;4.00;3.00;;;;;13.58;83.75;100259.53;2027735;28;2753482;-83
2024/02/08 00:24:41;;;;;;;;;4.00;3.00;;;;;13.56;83.48;100258.75;2044630;28;2754490;-83
2024/02/08 00:25:55;;;;;;;;;4.67;4.00;;;;;13.58;83.59;100263.97;2038051;28;2739853;-84
2024/02/08 00:27:08;;;;;;;;;3.50;3.50;;;;;13.59;83.71;100260.38;2053430;28;2740333;-83
2024/02/08 00:28:20;;;;;;;;;7.00;3.00;;;;;13.59;83.56;100257.75;2003882;28;2748241;-83
2024/02/08 00:29:33;;;;;;;;;3.50;3.17;;;;;13.58;83.63;100253.41;2053896;27;2754463;-83
2024/02/08 00:30:45;;;;;;;;;5.00;4.33;;;;;13.59;83.50;100255.09;2004724;28;2752387;-83
2024/02/08 00:31:55;;;;;;;;;3.67;3.00;;;;;13.58;83.69;100248.13;2028371;27;2746103;-83
2024/02/08 00:33:07;;;;;;;;;3.67;3.00;;;;;13.59;83.54;100255.09;2045969;27;2746098;-83
2024/02/08 00:34:20;;;;;;;;;1.83;1.67;;;;;13.60;83.64;100252.41;2062408;27;2738804;-83
2024/02/08 00:35:30;;;;;;;;;5.00;4.00;;;;;13.59;83.53;100252.47;2003468;27;2751471;-83
2024/02/08 00:36:41;;;;;;;;;5.00;4.33;;;;;13.59;83.68;100249.81;2033823;28;2749236;-83
2024/02/08 00:37:52;;;;;;;;;5.00;4.00;;;;;13.59;83.71;100244.53;2033652;28;2754516;-83
2024/02/08 00:39:06;;;;;;;;;4.00;4.00;;;;;13.58;83.67;100242.84;2032456;28;2754433;-83
2024/02/08 00:40:17;;;;;;;;;4.00;4.00;;;;;13.58;83.76;100242.84;2022836;27;2754446;-83
2024/02/08 00:41:31;;;;;;;;;5.00;4.83;;;;;13.58;83.73;100248.97;2061905;27;2747558;-83
2024/02/08 00:42:42;;;;;;;;;6.00;4.00;;;;;13.59;83.75;100244.53;2004145;27;2746162;-84
2024/02/08 00:43:52;;;;;;;;;4.00;3.00;;;;;13.59;83.73;100250.69;2027537;27;2754435;-83
2024/02/08 00:45:04;;;;;;;;;4.00;3.00;;;;;13.59;83.63;100233.97;2037529;28;2752388;-84
2024/02/08 00:46:14;;;;;;;;;3.67;3.67;;;;;13.60;83.36;100238.34;2019333;28;2746102;-83
2024/02/08 00:47:25;;;;;;;;;4.00;4.00;;;;;13.61;83.60;100240.03;2041936;27;2739849;-84
2024/02/08 00:48:36;;;;;;;;;4.00;4.00;;;;;13.59;84.01;100234.84;2049206;27;2741920;-83
2024/02/08 00:49:48;;;;;;;;;6.00;4.33;;;;;13.59;83.76;100232.19;2044986;27;3470102;-83
2024/02/08 00:50:59;;;;;;;;;5.00;5.00;;;;;13.61;83.42;100237.38;2034762;27;2750280;-83
2024/02/08 00:52:09;;;;;;;;;4.00;4.00;;;;;13.60;83.16;100230.41;2034463;27;2744124;-83
2024/02/08 00:53:21;;;;;;;;;5.00;3.00;;;;;13.59;83.52;100234.84;2060236;27;2739868;-83
2024/02/08 00:54:35;;;;;;;;;4.00;4.00;;;;;13.60;83.67;100226.00;2037228;27;2737829;-83
2024/02/08 00:55:46;;;;;;;;;3.00;3.00;;;;;13.60;83.40;100225.13;2004593;28;2753393;-84
2024/02/08 00:56:58;;;;;;;;;2.40;2.40;;;;;13.59;83.42;100229.56;2052580;27;2751378;-83
2024/02/08 00:58:15;;;;;;;;;4.00;4.00;;;;;13.59;83.50;100213.72;2057797;27;2750288;-83
2024/02/08 00:59:28;;;;;;;;;2.67;2.67;;;;;13.61;83.23;100216.25;2034380;27;2750270;-83
2024/02/08 01:00:40;;;;;;;;;3.00;3.00;;;;;13.58;83.30;100219.91;2003413;28;2745084;-83
2024/02/08 01:01:50;;;;;;;;;4.33;4.33;;;;;13.59;83.19;100218.13;2027931;27;2752372;-84
2024/02/08 01:03:01;;;;;;;;;4.00;4.00;;;;;13.59;83.50;100221.63;2052514;28;2744055;-83
2024/02/08 01:04:14;;;;;;;;;4.17;3.33;;;;;13.59;83.19;100220.78;2053824;27;2738404;-84
2024/02/08 01:05:28;;;;;;;;;2.17;2.17;;;;;13.58;83.19;100222.56;2029759;27;2748208;-84
2024/02/08 01:06:41;;;;;;;;;3.50;3.33;;;;;13.58;83.27;100214.63;2035406;27;2739944;-84
2024/02/08 01:07:51;;;;;;;;;3.33;3.00;;;;;13.58;83.37;100217.28;2009686;27;2746204;-83
2024/02/08 01:09:03;;;;;;;;;3.00;3.00;;;;;13.58;83.27;100217.28;2052705;27;2736056;-83
2024/02/08 01:10:16;;;;;;;;;2.33;2.17;;;;;13.58;83.50;100211.16;2043665;28;2738800;-83
2024/02/08 01:11:30;;;;;;;;;1.17;1.17;;;;;13.56;83.47;100213.88;2022892;28;2728402;-83
2024/02/08 01:12:43;;;;;;;;;4.33;4.33;;;;;13.58;83.43;100211.16;2003943;28;2752508;-83
2024/02/08 01:13:53;;;;;;;;;4.00;4.00;;;;;13.58;83.25;100216.44;2019006;28;2746195;-83
2024/02/08 01:15:04;;;;;;;;;6.00;4.00;;;;;13.58;83.91;100217.28;2038285;28;2750257;-83
2024/02/08 01:16:15;;;;;;;;;3.00;2.67;;;;;13.58;83.33;100221.72;2028549;27;2750329;-83
2024/02/08 01:17:27;;;;;;;;;3.67;3.00;;;;;13.58;83.42;100211.16;2046957;27;2744079;-83
2024/02/08 01:18:41;;;;;;;;;3.00;3.00;;;;;13.58;83.56;100214.63;2058379;27;2743033;-83
2024/02/08 01:19:52;;;;;;;;;3.00;3.00;;;;;13.58;83.36;100208.53;1996150;28;2754525;-83
2024/02/08 01:21:03;;;;;;;;;4.33;4.00;;;;;13.56;83.48;100205.97;2020072;28;2748264;-83
2024/02/08 01:22:19;;;;;;;;;3.33;3.33;;;;;13.58;83.34;100211.16;2051833;28;2745099;-83
2024/02/08 01:23:32;;;;;;;;;2.50;2.50;;;;;13.57;83.58;100204.16;2029879;28;2754463;-83
2024/02/08 01:24:49;;;;;;;;;2.17;2.17;;;;;13.58;83.52;100212.00;2030444;28;2734629;-83
2024/02/08 01:25:59;;;;;;;;;3.00;3.00;;;;;13.57;83.38;100215.59;2003821;28;2748580;-83
2024/02/08 01:27:10;;;;;;;;;3.00;2.00;;;;;13.57;83.57;100207.66;2043266;28;2741944;-83
2024/02/08 01:28:21;;;;;;;;;2.33;2.33;;;;;13.58;83.33;100200.63;2019001;28;2750337;-83
2024/02/08 01:29:32;;;;;;;;;2.00;2.00;;;;;13.58;83.18;100197.97;2052367;28;2748579;-83
2024/02/08 01:30:45;;;;;;;;;2.67;2.50;;;;;13.59;83.49;100212.84;2052957;28;2737782;-83
2024/02/08 01:32:00;;;;;;;;;4.33;3.83;;;;;13.60;83.63;100209.28;2030007;28;2734634;-83
2024/02/08 01:33:13;;;;;;;;;2.00;2.00;;;;;13.57;83.45;100207.66;2031737;27;2744053;-84
2024/02/08 01:34:25;;;;;;;;;4.00;2.33;;;;;13.58;83.15;100200.63;2008515;27;2749210;-83
2024/02/08 01:35:35;;;;;;;;;5.00;4.00;;;;;13.58;83.58;100205.91;2018042;28;2755291;-83
2024/02/08 01:36:49;;;;;;;;;3.00;3.00;;;;;13.58;83.50;100205.91;2035728;28;2754502;-83
2024/02/08 01:37:59;;;;;;;;;4.00;2.00;;;;;13.57;83.33;100198.91;2026905;28;3446429;-83
2024/02/08 01:39:13;;;;;;;;;5.00;2.00;;;;;13.59;83.26;100203.16;2044123;28;2752438;-83
2024/02/08 01:40:26;;;;;;;;;6.00;3.00;;;;;13.59;83.50;100199.66;2057824;27;2733608;-83
2024/02/08 01:41:37;;;;;;;;;4.00;2.33;;;;;13.60;82.94;100204.00;1996183;28;2754846;-83
2024/02/08 01:42:48;;;;;;;;;2.00;2.00;;;;;13.59;82.98;100207.56;2036350;28;2747175;-84
2024/02/08 01:44:03;;;;;;;;;3.00;3.00;;;;;13.57;83.29;100205.03;2034884;27;2746139;-84
2024/02/08 01:45:16;;;;;;;;;4.00;2.00;;;;;13.57;83.34;100196.25;2036201;27;2744435;-83
2024/02/08 01:46:27;;;;;;;;;4.00;2.67;;;;;13.57;83.06;100193.63;2035122;27;2754498;-83
2024/02/08 01:47:39;;;;;;;;;2.00;2.00;;;;;13.56;83.51;100191.88;2060624;27;2750292;-84
2024/02/08 01:48:50;;;;;;;;;4.00;3.00;;;;;13.58;83.16;100192.69;2008388;27;2754460;-84
2024/02/08 01:50:02;;;;;;;;;3.00;3.00;;;;;13.58;83.33;100188.25;2035156;28;2745088;-83
2024/02/08 01:51:16;;;;;;;;;2.00;2.00;;;;;13.59;83.27;100191.72;2050412;27;2742954;-83
2024/02/08 01:52:29;;;;;;;;;2.67;2.67;;;;;13.58;83.36;100179.50;2030258;28;2735703;-83
2024/02/08 01:53:44;;;;;;;;;2.50;2.00;;;;;13.59;83.18;100187.31;2029889;27;2730497;-84
2024/02/08 01:54:57;;;;;;;;;3.50;3.50;;;;;13.58;83.17;100180.31;2036752;27;2737769;-83
2024/02/08 01:56:11;;;;;;;;;4.00;4.00;;;;;13.58;83.24;100184.78;2009619;28;2754444;-83
2024/02/08 01:57:21;;;;;;;;;3.67;2.00;;;;;13.58;83.16;100184.78;2018956;28;2754482;-84
2024/02/08 01:58:33;;;;;;;;;3.00;2.00;;;;;13.56;83.12;100187.47;2035831;28;2750301;-83
2024/02/08 01:59:52;;;;;;;;;2.00;2.00;;;;;13.58;83.39;100182.13;2027409;27;2754500;-83
2024/02/08 02:01:06;;;;;;;;;1.00;1.00;;;;;13.58;83.44;100182.13;2054188;27;2733610;-83
2024/02/08 02:02:21;;;;;;;;;1.83;1.83;;;;;13.57;82.99;100181.28;2031227;27;2728391;-83
2024/02/08 02:03:35;;;;;;;;;3.00;1.83;;;;;13.55;83.13;100175.19;2029993;27;2744053;-83
2024/02/08 02:04:48;;;;;;;;;1.67;1.67;;;;;13.56;83.04;100173.38;2039860;27;2729439;-83
2024/02/08 02:06:07;;;;;;;;;2.00;2.00;;;;;13.55;83.01;100169.91;2038795;27;2733664;-83
2024/02/08 02:07:23;;;;;;;;;3.00;3.00;;;;;13.57;83.39;100172.50;2038257;27;2754479;-83
2024/02/08 02:08:36;;;;;;;;;2.00;2.00;;;;;13.56;83.12;100165.47;2038962;27;2733606;-83
2024/02/08 02:09:49;;;;;;;;;3.33;3.17;;;;;13.56;82.99;100165.47;2031110;27;2754439;-83
2024/02/08 02:11:41;;;;;;;;;3.33;3.33;;;;;13.56;83.08;100166.34;2021306;28;2748193;-83
2024/02/08 02:12:51;;;;;;;;;2.00;2.00;;;;;13.56;82.95;100165.47;1980457;28;2754528;-83
2024/02/08 02:14:05;;;;;;;;;2.00;2.00;;;;;13.57;83.17;100161.94;2051833;27;2740232;-84
2024/02/08 02:15:17;;;;;;;;;3.00;3.00;;;;;13.56;83.22;100162.81;2010525;27;2750268;-83
2024/02/08 02:16:27;;;;;;;;;2.00;2.00;;;;;13.55;83.48;100169.91;2030543;27;2750280;-83
2024/02/08 02:17:43;;;;;;;;;4.33;3.00;;;;;13.57;83.13;100167.22;2043072;28;2754427;-83
2024/02/08 02:18:57;;;;;;;;;2.17;1.50;;;;;13.57;83.47;100161.94;2057648;27;2740913;-83
2024/02/08 02:20:10;;;;;;;;;2.00;2.00;;;;;13.56;83.54;100163.72;2012174;27;2754434;-83
2024/02/08 02:21:21;;;;;;;;;2.00;2.00;;;;;13.56;83.07;100161.06;2035099;27;2744016;-83
2024/02/08 02:22:34;;;;;;;;;3.17;3.17;;;;;13.56;83.06;100157.53;2061120;27;2754950;-83
2024/02/08 02:23:48;;;;;;;;;2.33;2.33;;;;;13.58;83.14;100159.19;2036368;27;2744037;-83
2024/02/08 02:25:01;;;;;;;;;2.83;2.83;;;;;13.58;83.06;100150.44;2035763;27;2741939;-83
2024/02/08 02:26:13;;;;;;;;;2.00;2.00;;;;;13.59;83.04;100153.00;2011522;27;2744040;-83
2024/02/08 02:27:27;;;;;;;;;4.00;3.67;;;;;13.57;83.00;100151.38;2052860;28;2738822;-83
2024/02/08 02:28:40;;;;;;;;;3.50;2.50;;;;;13.58;83.02;100147.81;2030116;27;2742984;-83
2024/02/08 02:29:54;;;;;;;;;1.67;1.67;;;;;13.56;83.32;100144.34;2029584;28;2729471;-83
2024/02/08 02:31:06;;;;;;;;;3.00;3.00;;;;;13.57;83.19;100146.09;2002379;28;2754435;-83
2024/02/08 02:32:20;;;;;;;;;2.00;2.00;;;;;13.57;83.13;100132.88;2026931;28;2748189;-83
2024/02/08 02:33:36;;;;;;;;;6.00;3.67;;;;;13.57;83.28;100133.75;2026486;27;2750335;-83
2024/02/08 02:34:51;;;;;;;;;4.33;3.00;;;;;13.57;83.30;100131.09;2027681;27;2745057;-83
2024/02/08 02:36:03;;;;;;;;;2.00;2.00;;;;;13.58;83.11;100131.97;2027165;28;2754505;-83
2024/02/08 02:37:18;;;;;;;;;3.00;2.50;;;;;13.58;83.26;100132.78;2055059;27;2744048;-83
2024/02/08 02:38:31;;;;;;;;;2.33;2.00;;;;;13.56;83.21;100125.84;2037318;27;2740886;-83
2024/02/08 02:39:42;;;;;;;;;3.33;2.00;;;;;13.58;83.09;100113.47;2010577;27;2751822;-83
2024/02/08 02:40:53;;;;;;;;;3.67;3.67;;;;;13.57;83.30;100125.81;2055953;27;2741955;-84
2024/02/08 02:42:03;;;;;;;;;4.33;3.33;;;;;13.58;83.23;100119.59;2026623;28;2752387;-83
2024/02/08 02:43:14;;;;;;;;;3.00;3.00;;;;;13.59;83.04;100123.09;2024440;28;2747127;-83
2024/02/08 02:44:29;;;;;;;;;2.00;2.00;;;;;13.56;83.12;100123.22;2036392;28;2754457;-83
2024/02/08 02:45:42;;;;;;;;;3.33;3.17;;;;;13.58;83.02;100124.03;2051984;27;2754423;-83
2024/02/08 02:46:53;;;;;;;;;3.00;3.00;;;;;13.57;83.39;100114.41;2003038;27;2747188;-83
2024/02/08 02:48:04;;;;;;;;;2.00;2.00;;;;;13.58;83.19;100105.56;2018777;28;2753381;-83
2024/02/08 02:49:21;;;;;;;;;3.40;1.80;;;;;13.58;83.20;100110.84;2050352;27;2745049;-83
2024/02/08 02:50:41;;;;;;;;;3.67;2.00;;;;;13.57;83.46;100111.75;2052458;28;2737800;-83
2024/02/08 02:51:56;;;;;;;;;3.00;3.00;;;;;13.58;83.22;100108.19;2023032;28;2752383;-83
2024/02/08 02:53:09;;;;;;;;;1.33;1.17;;;;;13.57;82.98;100107.34;2029111;28;2728390;-83
2024/02/08 02:54:22;;;;;;;;;1.50;1.50;;;;;13.56;83.42;100102.97;2030792;27;2729581;-83
2024/02/08 02:55:37;;;;;;;;;1.50;1.50;;;;;13.57;83.08;100102.06;2036481;27;2735717;-83
2024/02/08 02:56:50;;;;;;;;;2.00;2.00;;;;;13.56;83.14;100105.63;2037318;27;2744004;-83
2024/02/08 02:58:04;;;;;;;;;1.33;1.33;;;;;13.57;83.11;100106.47;2038764;27;2734108;-83
2024/02/08 02:59:17;;;;;;;;;1.50;1.50;;;;;13.56;83.10;100099.44;2037166;27;2729489;-84
2024/02/08 03:00:33;;;;;;;;;2.00;2.00;;;;;13.56;82.80;100096.81;2030353;27;2749229;-83
2024/02/08 03:01:49;;;;;;;;;2.00;2.00;;;;;13.54;82.89;100093.41;1995349;28;2750368;-83
2024/02/08 03:03:06;;;;;;;;;2.67;2.00;;;;;13.53;83.08;100092.56;2020487;28;2744003;-83
2024/02/08 03:04:20;;;;;;;;;2.33;2.33;;;;;13.56;83.04;100097.69;2046304;28;2744042;-83
2024/02/08 03:05:35;;;;;;;;;2.67;1.50;;;;;13.55;83.23;100097.78;2023009;28;2731536;-83
2024/02/08 03:06:53;;;;;;;;;1.17;1.17;;;;;13.53;83.10;100097.84;2033400;27;2739905;-84
2024/02/08 03:08:06;;;;;;;;;2.50;2.00;;;;;13.53;83.24;100094.38;2030136;28;2741960;-83
2024/02/08 03:09:17;;;;;;;;;2.67;2.67;;;;;13.54;83.31;100091.63;2011926;27;2754503;-83
2024/02/08 03:10:33;;;;;;;;;2.17;2.17;;;;;13.53;83.00;100084.63;2061704;27;2737218;-83
2024/02/08 03:11:46;;;;;;;;;2.67;1.50;;;;;13.55;83.03;100089.84;2032159;27;2732590;-84
2024/02/08 03:13:00;;;;;;;;;2.00;2.00;;;;;13.56;83.28;100088.91;2028571;28;2737753;-83
2024/02/08 03:14:15;;;;;;;;;1.33;1.33;;;;;13.56;82.88;100080.97;2030254;28;2731647;-83
2024/02/08 03:15:28;;;;;;;;;2.33;2.33;;;;;13.55;83.36;100080.16;2022838;28;2736704;-83
2024/02/08 03:16:42;;;;;;;;;2.00;2.00;;;;;13.56;83.21;100083.63;2030995;27;2732561;-84
2024/02/08 03:17:55;;;;;;;;;1.00;1.00;;;;;13.55;83.01;100074.00;2037961;27;2732615;-83
2024/02/08 03:19:08;;;;;;;;;4.00;1.33;;;;;13.56;83.36;100065.13;2037667;27;2733972;-83
2024/02/08 03:20:29;;;;;;;;;2.00;2.00;;;;;13.56;83.12;100075.69;2038155;27;2738806;-83
2024/02/08 03:21:45;;;;;;;;;2.00;2.00;;;;;13.56;83.09;100081.88;2030519;28;2728993;-83
2024/02/08 03:22:59;;;;;;;;;2.67;2.00;;;;;13.56;83.37;100075.69;2022873;28;2730485;-83
2024/02/08 03:24:13;;;;;;;;;1.17;1.17;;;;;13.55;83.24;100079.28;2022571;28;2725286;-84
2024/02/08 03:25:26;;;;;;;;;3.83;2.33;;;;;13.54;83.70;100064.38;2029842;27;2753465;-84
2024/02/08 03:26:44;;;;;;;;;3.33;3.00;;;;;13.55;83.15;100071.38;2013490;27;2742970;-83
2024/02/08 03:27:55;;;;;;;;;2.00;2.00;;;;;13.55;83.40;100068.72;2034067;27;2754431;-84
2024/02/08 03:29:11;;;;;;;;;2.33;1.00;;;;;13.54;83.00;100067.00;2051634;28;2729811;-84
2024/02/08 03:30:30;;;;;;;;;2.17;2.17;;;;;13.55;83.30;100069.59;2054279;27;2737828;-84
2024/02/08 03:31:45;;;;;;;;;1.83;1.83;;;;;13.54;83.30;100062.59;2037996;27;2738835;-84
2024/02/08 03:32:59;;;;;;;;;1.00;1.00;;;;;13.54;83.23;100065.22;2029131;28;2725292;-83
2024/02/08 03:34:19;;;;;;;;;0.50;0.50;;;;;13.54;83.19;100059.94;2027678;28;2729432;-83
2024/02/08 03:35:36;;;;;;;;;3.00;1.00;;;;;13.54;83.17;100059.09;2032312;27;2731519;-84
2024/02/08 03:36:50;;;;;;;;;1.67;1.67;;;;;13.55;83.47;100060.81;2022598;27;2730477;-84
2024/02/08 03:38:03;;;;;;;;;2.17;2.00;;;;;13.55;83.21;100052.88;2020599;28;2741938;-84
2024/02/08 03:39:25;;;;;;;;;1.67;1.67;;;;;13.56;83.37;100060.75;2026025;27;2730502;-83
2024/02/08 03:40:38;;;;;;;;;1.17;1.17;;;;;13.55;83.38;100053.75;2035140;27;2730463;-84
2024/02/08 03:42:01;;;;;;;;;2.83;2.83;;;;;13.55;83.33;100056.38;2028313;27;2735689;-84
2024/02/08 03:43:15;;;;;;;;;1.00;1.00;;;;;13.56;83.24;100049.28;2021251;28;2724224;-83
2024/02/08 03:44:33;;;;;;;;;2.00;2.00;;;;;13.57;83.42;100058.97;2015034;28;2732550;-84
2024/02/08 03:45:46;;;;;;;;;1.00;1.00;;;;;13.56;83.23;100054.56;2024162;27;2720172;-83
2024/02/08 03:47:12;;;;;;;;;1.00;1.00;;;;;13.56;83.15;100049.28;2037883;27;2736770;-83
2024/02/08 03:48:26;;;;;;;;;1.00;1.00;;;;;13.56;83.20;100047.53;2037531;27;2735717;-84
2024/02/08 03:49:49;;;;;;;;;1.83;1.00;;;;;13.56;83.19;100049.28;2025562;28;2731519;-84
2024/02/08 03:51:02;;;;;;;;;1.00;1.00;;;;;13.56;83.21;100042.25;2025224;27;2733603;-84
2024/02/08 03:52:18;;;;;;;;;0.33;0.33;;;;;13.57;83.04;100053.69;2039455;27;2727393;-84
2024/02/08 03:53:36;;;;;;;;;1.00;1.00;;;;;13.57;83.17;100051.91;2036147;27;2733599;-83
2024/02/08 03:54:49;;;;;;;;;1.50;1.00;;;;;13.56;83.18;100046.66;2030097;28;2731514;-84
2024/02/08 03:56:06;;;;;;;;;1.00;1.00;;;;;13.56;83.10;100047.53;2029185;28;2728391;-83
2024/02/08 03:57:19;;;;;;;;;0.17;0.17;;;;;13.56;83.44;100050.19;2029740;28;2725293;-83
2024/02/08 03:58:32;;;;;;;;;0.17;0.17;;;;;13.55;83.41;100043.19;2029511;28;2721107;-83
2024/02/08 03:59:45;;;;;;;;;1.00;1.00;;;;;13.54;83.25;100037.97;2029101;28;2736203;-83
2024/02/08 04:01:00;;;;;;;;;1.00;0.83;;;;;13.55;83.38;100034.41;2027003;28;2733599;-83
2024/02/08 04:02:13;;;;;;;;;0.00;0.00;;;;;13.55;83.38;100037.03;2029796;28;2726359;-83
2024/02/08 04:03:53;;;;;;;;;1.00;1.00;;;;;13.55;83.45;100032.63;2029399;28;2740911;-83
2024/02/08 04:05:09;;;;;;;;;1.00;1.00;;;;;13.55;83.36;100034.41;2026397;28;2736736;-84
2024/02/08 04:06:49;;;;;;;;;1.67;1.00;;;;;13.55;83.52;100026.47;2024875;28;2733596;-83
2024/02/08 04:09:39;;;;;;;;;1.00;1.00;;;;;13.55;83.39;100027.34;2030536;27;2725700;-83
2024/02/08 04:53:43;;;;;;;;;1.83;0.33;;;;;13.55;83.75;99982.47;2029985;28;2735742;-83
2024/02/08 04:54:57;;;;;;;;;0.17;0.00;;;;;13.54;83.62;99983.38;2029838;28;2731555;-83
2024/02/08 04:56:11;;;;;;;;;2.00;1.67;;;;;13.55;83.57;99979.81;2021104;28;2735674;-83
2024/02/08 04:57:25;;;;;;;;;0.00;0.00;;;;;13.55;83.68;99984.25;2022626;28;2722510;-83
2024/02/08 04:58:40;;;;;;;;;0.83;0.83;;;;;13.55;83.69;99978.97;2022269;28;2733649;-83
2024/02/08 04:59:53;;;;;;;;;1.00;1.00;;;;;13.55;83.88;99987.75;2030690;27;2739864;-84
2024/02/08 05:01:08;;;;;;;;;0.67;0.50;;;;;13.55;83.62;99978.97;2036982;27;2734660;-83
2024/02/08 05:02:22;;;;;;;;;0.50;0.50;;;;;13.56;84.14;99970.09;2037696;27;2727349;-83
2024/02/08 05:03:39;;;;;;;;;0.83;0.83;;;;;13.56;83.68;99975.38;2030050;28;2727437;-84
2024/02/08 05:04:52;;;;;;;;;1.17;1.17;;;;;13.56;83.65;99978.00;2024549;28;2721092;-84
2024/02/08 05:06:14;;;;;;;;;0.00;0.00;;;;;13.58;83.79;99981.47;2031448;28;2725294;-84
2024/02/08 05:07:28;;;;;;;;;0.00;0.00;;;;;13.58;83.49;99976.19;2028499;27;2726865;-83
2024/02/08 05:08:42;;;;;;;;;0.17;0.17;;;;;13.58;83.84;99981.47;2031186;28;2733639;-83
2024/02/08 05:09:55;;;;;;;;;0.67;0.67;;;;;13.58;84.02;99984.94;2031024;28;2734939;-83
2024/02/08 05:11:10;;;;;;;;;0.00;0.00;;;;;13.57;83.91;99975.31;2031701;27;2733643;-84
2024/02/08 05:12:23;;;;;;;;;0.00;0.00;;;;;13.58;83.65;99973.53;2039813;27;2727369;-84
2024/02/08 05:13:39;;;;;;;;;0.33;0.33;;;;;13.59;83.92;99975.22;2038814;27;2729460;-84
2024/02/08 05:14:52;;;;;;;;;0.00;0.00;;;;;13.59;83.94;99972.59;2038559;27;2733617;-84
2024/02/08 05:16:16;;;;;;;;;0.17;0.17;;;;;13.59;83.85;99972.59;2038852;27;2724268;-84
2024/02/08 05:17:29;;;;;;;;;0.33;0.00;;;;;13.58;83.68;99969.09;2061545;27;2729424;-83
2024/02/08 05:18:44;;;;;;;;;0.17;0.17;;;;;13.58;83.82;99969.09;2031328;27;2735674;-83
2024/02/08 05:19:57;;;;;;;;;0.00;0.00;;;;;13.60;83.63;99975.16;2030841;28;2733630;-84
2024/02/08 05:21:12;;;;;;;;;0.67;0.67;;;;;13.60;83.90;99963.75;2030085;27;2737757;-84
2024/02/08 05:22:25;;;;;;;;;0.00;0.00;;;;;13.59;83.95;99970.81;2031206;27;2720042;-83
2024/02/08 05:23:40;;;;;;;;;0.00;0.00;;;;;13.61;83.78;99973.34;2023324;28;2729861;-83
2024/02/08 05:24:54;;;;;;;;;0.50;0.33;;;;;13.58;83.84;99966.44;2024560;28;2719039;-84
2024/02/08 05:26:09;;;;;;;;;1.00;1.00;;;;;13.60;83.81;99961.97;2032510;27;2735693;-83
2024/02/08 05:27:23;;;;;;;;;1.00;1.00;;;;;13.61;83.80;99968.06;2022876;28;2721123;-83
2024/02/08 05:28:37;;;;;;;;;0.33;0.00;;;;;13.59;83.96;99964.66;2023871;28;2723209;-83
2024/02/08 05:29:50;;;;;;;;;1.00;1.00;;;;;13.59;83.80;99965.53;2030769;27;2729431;-84
2024/02/08 05:31:06;;;;;;;;;1.00;1.00;;;;;13.58;83.96;99961.16;2031898;28;2722142;-83
2024/02/08 05:32:22;;;;;;;;;2.00;1.00;;;;;13.59;83.93;99962.03;2030892;27;2733630;-83
2024/02/08 05:33:35;;;;;;;;;0.67;0.67;;;;;13.60;84.09;99964.59;2038943;27;2724211;-83
2024/02/08 05:34:50;;;;;;;;;1.00;1.00;;;;;13.60;83.93;99967.25;2038394;27;2733654;-83
2024/02/08 05:36:06;;;;;;;;;0.00;0.00;;;;;13.61;84.06;99965.41;2028811;27;2733965;-84
2024/02/08 05:37:25;;;;;;;;;1.83;0.17;;;;;13.61;83.97;99963.63;2030521;27;2735757;-84
2024/02/08 05:38:41;;;;;;;;;0.00;0.00;;;;;13.61;84.32;99957.50;2029879;27;2727693;-83
2024/02/08 05:40:00;;;;;;;;;1.00;1.00;;;;;13.61;84.09;99962.78;2031251;27;2733617;-83
2024/02/08 05:41:17;;;;;;;;;0.00;0.00;;;;;13.63;84.20;99965.34;2036239;27;2734125;-83
2024/02/08 05:42:36;;;;;;;;;1.17;1.17;;;;;13.62;84.35;99961.84;2030567;28;2731524;-84
2024/02/08 05:43:51;;;;;;;;;0.83;0.50;;;;;13.63;84.24;99966.19;2037166;27;2725341;-83
2024/02/08 05:45:20;;;;;;;;;0.83;0.50;;;;;13.62;84.05;99964.50;2031015;27;2725261;-83
2024/02/08 05:46:40;;;;;;;;;0.00;0.00;;;;;13.64;84.09;99972.31;2034155;27;2729433;-83
2024/02/08 05:47:53;;;;;;;;;0.00;0.00;;;;;13.63;84.31;99968.00;2034468;27;2728387;-83
2024/02/08 05:49:13;;;;;;;;;0.67;0.00;;;;;13.61;84.26;99968.91;2030796;27;2725278;-83
2024/02/08 05:50:27;;;;;;;;;0.33;0.00;;;;;13.63;84.25;99965.34;2032388;28;2722178;-82
2024/02/08 05:51:46;;;;;;;;;0.33;0.33;;;;;13.64;84.22;99967.03;2030796;28;2729421;-83
2024/02/08 05:53:06;;;;;;;;;0.00;0.00;;;;;13.64;84.08;99962.59;2032042;27;2731539;-83
2024/02/08 05:54:31;;;;;;;;;0.17;0.17;;;;;13.65;84.36;99966.09;2039437;27;2725308;-82
2024/02/08 05:55:48;;;;;;;;;0.00;0.00;;;;;13.66;84.16;99958.09;2033343;27;2727329;-83
2024/02/08 05:57:03;;;;;;;;;0.17;0.00;;;;;13.67;84.13;99956.31;2038440;27;2725289;-83
2024/02/08 05:58:18;;;;;;;;;0.00;0.00;;;;;13.65;84.20;99956.41;2030475;27;2736032;-82
2024/02/08 05:59:32;;;;;;;;;0.00;0.00;;;;;13.66;84.00;99960.72;2031306;27;2733599;-83
2024/02/08 06:01:01;;;;;;;;;0.00;0.00;;;;;13.65;84.13;99959.03;2028424;28;2734014;-82
2024/02/08 06:02:14;;;;;;;;;1.33;0.67;;;;;13.66;84.03;99962.50;2033829;27;2735689;-83
2024/02/08 06:03:27;;;;;;;;;1.00;1.00;;;;;13.66;84.20;99960.72;2035915;27;2734652;-82
2024/02/08 06:04:41;;;;;;;;;0.67;0.67;;;;;13.67;84.22;99965.09;2034152;27;2719079;-82
2024/02/08 06:06:06;;;;;;;;;0.00;0.00;;;;;13.67;84.19;99961.59;2035887;27;2731519;-83
2024/02/08 06:07:20;;;;;;;;;1.67;0.67;;;;;13.68;84.43;99964.13;2035840;27;2740391;-82
2024/02/08 06:08:39;;;;;;;;;2.00;0.00;;;;;13.69;84.44;99965.84;2038699;27;2733584;-83
2024/02/08 06:10:07;;;;;;;;;0.33;0.33;;;;;13.69;84.25;99963.19;2038825;27;2730458;-82
2024/02/08 06:11:22;;;;;;;;;0.17;0.17;;;;;13.70;83.75;99962.22;2038905;27;2729444;-82
2024/02/08 06:12:51;;;;;;;;;1.17;0.83;;;;;13.70;84.09;99956.94;2038259;27;2740914;-82
2024/02/08 06:14:17;;;;;;;;;0.17;0.17;;;;;13.71;84.11;99958.66;2033863;27;2724244;-82
2024/02/08 06:15:33;;;;;;;;;0.83;0.83;;;;;13.70;84.07;99956.94;2030301;27;2733606;-82
2024/02/08 06:16:46;;;;;;;;;0.33;0.00;;;;;13.70;84.12;99962.22;2026350;28;2724271;-83
2024/02/08 06:18:05;;;;;;;;;1.00;0.50;;;;;13.71;84.07;99955.16;2030632;28;2731551;-82
2024/02/08 06:19:21;;;;;;;;;1.00;1.00;;;;;13.70;84.42;99959.59;2037133;27;2731544;-82
2024/02/08 06:20:40;;;;;;;;;0.33;0.33;;;;;13.69;83.93;99954.41;2039136;27;2725274;-84
2024/02/08 06:21:58;;;;;;;;;1.00;1.00;;;;;13.69;83.73;99957.91;2037342;27;2727357;-81
2024/02/08 06:23:17;;;;;;;;;1.33;1.00;;;;;13.67;83.90;99954.53;2021464;28;2731559;-81
2024/02/08 06:24:32;;;;;;;;;1.00;1.00;;;;;13.65;83.97;99953.75;2032153;27;2727409;-81